Time,TemperatureF,DewpointF,PressureIn,WindDirection,WindDirectionDegrees,WindSpeedMPH,WindSpeedGustMPH,Humidity,HourlyPrecipIn,Conditions,Clouds,dailyrainin,SoftwareType,DateUTC
2013-04-17 00:00:00,34.7,26.6,30.29,South,180,0.0,0.0,72,0.00,,,0.00,WUHU21636XXSP,2013-04-17 05:00:00,
2013-04-17 00:05:00,34.9,26.8,30.29,South,180,0.0,0.0,72,0.00,,,0.00,WUHU21636XXSP,2013-04-17 05:05:00,
2013-04-17 00:10:00,34.9,26.8,30.29,South,180,0.0,0.0,72,0.00,,,0.00,WUHU21636XXSP,2013-04-17 05:10:00,
2013-04-17 00:15:00,35.1,27.3,30.28,South,180,0.0,0.0,73,0.00,,,0.00,WUHU21636XXSP,2013-04-17 05:15:00,
2013-04-17 00:20:00,35.1,27.3,30.28,South,180,0.0,0.0,73,0.00,,,0.00,WUHU21636XXSP,2013-04-17 05:20:00,
2013-04-17 00:25:00,35.3,27.5,30.28,South,180,0.0,0.0,73,0.00,,,0.00,WUHU21636XXSP,2013-04-17 05:25:00,
2013-04-17 00:30:00,35.3,27.5,30.29,South,180,0.0,0.0,73,0.00,,,0.00,WUHU21636XXSP,2013-04-17 05:30:00,
2013-04-17 00:35:00,35.6,27.9,30.29,South,180,0.0,0.0,73,0.00,,,0.00,WUHU21636XXSP,2013-04-17 05:35:00,
2013-04-17 00:40:00,35.6,27.9,30.29,South,180,0.0,0.0,73,0.00,,,0.00,WUHU21636XXSP,2013-04-17 05:40:00,
2013-04-17 00:45:00,35.6,27.9,30.28,South,180,0.0,0.0,73,0.00,,,0.00,WUHU21636XXSP,2013-04-17 05:45:00,
2013-04-17 00:50:00,35.6,27.9,30.28,South,180,0.0,0.0,73,0.00,,,0.00,WUHU21636XXSP,2013-04-17 05:50:00,
2013-04-17 00:55:00,35.6,27.9,30.28,South,180,0.0,0.0,73,0.00,,,0.00,WUHU21636XXSP,2013-04-17 05:55:00,
2013-04-17 01:00:00,35.6,27.9,30.28,South,180,0.0,0.0,73,0.00,,,0.00,WUHU21636XXSP,2013-04-17 06:00:00,
2013-04-17 01:05:00,35.8,28.1,30.28,South,180,0.0,0.0,73,0.00,,,0.00,WUHU21636XXSP,2013-04-17 06:05:00,
2013-04-17 01:10:00,35.8,28.1,30.28,South,180,0.0,0.0,73,0.00,,,0.00,WUHU21636XXSP,2013-04-17 06:10:00,
2013-04-17 01:15:00,35.8,28.1,30.28,South,180,0.0,0.0,73,0.00,,,0.00,WUHU21636XXSP,2013-04-17 06:15:00,
2013-04-17 01:20:00,35.8,27.7,30.28,South,180,0.0,0.0,72,0.00,,,0.00,WUHU21636XXSP,2013-04-17 06:20:00,
2013-04-17 01:25:00,35.8,27.7,30.28,South,180,0.0,0.0,72,0.00,,,0.00,WUHU21636XXSP,2013-04-17 06:25:00,
2013-04-17 01:30:00,35.6,27.2,30.28,South,180,0.0,0.0,71,0.00,,,0.00,WUHU21636XXSP,2013-04-17 06:30:00,
2013-04-17 01:35:00,35.6,27.2,30.27,South,180,0.0,0.0,71,0.00,,,0.00,WUHU21636XXSP,2013-04-17 06:35:00,
2013-04-17 01:40:00,35.6,27.2,30.28,South,180,0.0,0.0,71,0.00,,,0.00,WUHU21636XXSP,2013-04-17 06:40:00,
2013-04-17 01:45:00,35.3,26.9,30.28,South,180,0.0,0.0,71,0.00,,,0.00,WUHU21636XXSP,2013-04-17 06:45:00,
2013-04-17 01:50:00,35.1,26.7,30.28,South,180,0.0,0.0,71,0.00,,,0.00,WUHU21636XXSP,2013-04-17 06:50:00,
2013-04-17 01:55:00,34.9,26.5,30.28,South,180,0.0,0.0,71,0.00,,,0.00,WUHU21636XXSP,2013-04-17 06:55:00,
2013-04-17 02:00:00,34.7,26.6,30.28,South,180,0.0,0.0,72,0.00,,,0.00,WUHU21636XXSP,2013-04-17 07:00:00,
2013-04-17 02:05:00,34.5,26.5,30.28,South,180,0.0,0.0,72,0.00,,,0.00,WUHU21636XXSP,2013-04-17 07:05:00,
2013-04-17 02:10:00,34.3,26.6,30.28,South,180,0.0,0.0,73,0.00,,,0.00,WUHU21636XXSP,2013-04-17 07:10:00,
2013-04-17 02:15:00,33.9,26.2,30.28,South,180,0.0,0.0,73,0.00,,,0.00,WUHU21636XXSP,2013-04-17 07:15:00,
2013-04-17 02:20:00,33.7,26.0,30.27,South,180,0.0,0.0,73,0.00,,,0.00,WUHU21636XXSP,2013-04-17 07:20:00,
2013-04-17 02:25:00,33.7,26.0,30.27,South,180,0.0,0.0,73,0.00,,,0.00,WUHU21636XXSP,2013-04-17 07:25:00,
2013-04-17 02:30:00,33.6,25.9,30.27,South,180,0.0,0.0,73,0.00,,,0.00,WUHU21636XXSP,2013-04-17 07:30:00,
2013-04-17 02:35:00,33.4,25.7,30.27,South,180,0.0,0.0,73,0.00,,,0.00,WUHU21636XXSP,2013-04-17 07:35:00,
2013-04-17 02:40:00,33.2,25.5,30.27,South,180,0.0,0.0,73,0.00,,,0.00,WUHU21636XXSP,2013-04-17 07:40:00,
2013-04-17 02:45:00,33.0,25.3,30.27,South,180,0.0,0.0,73,0.00,,,0.00,WUHU21636XXSP,2013-04-17 07:45:00,
2013-04-17 02:50:00,33.0,25.3,30.27,South,180,0.0,0.0,73,0.00,,,0.00,WUHU21636XXSP,2013-04-17 07:50:00,
2013-04-17 02:55:00,33.0,25.6,30.27,South,180,0.0,0.0,74,0.00,,,0.00,WUHU21636XXSP,2013-04-17 07:55:00,
2013-04-17 03:00:00,32.8,25.4,30.27,South,180,0.0,0.0,74,0.00,,,0.00,WUHU21636XXSP,2013-04-17 08:00:00,
2013-04-17 03:05:00,32.7,25.3,30.27,South,180,0.0,0.0,74,0.00,,,0.00,WUHU21636XXSP,2013-04-17 08:05:00,
2013-04-17 03:10:00,32.4,25.1,30.26,South,180,0.0,0.0,74,0.00,,,0.00,WUHU21636XXSP,2013-04-17 08:10:00,
2013-04-17 03:15:00,32.4,25.4,30.26,South,180,0.0,0.0,75,0.00,,,0.00,WUHU21636XXSP,2013-04-17 08:15:00,
2013-04-17 03:20:00,32.4,25.4,30.26,South,180,0.0,0.0,75,0.00,,,0.00,WUHU21636XXSP,2013-04-17 08:20:00,
2013-04-17 03:25:00,32.4,25.4,30.27,South,180,0.0,0.0,75,0.00,,,0.00,WUHU21636XXSP,2013-04-17 08:25:00,
2013-04-17 03:30:00,32.7,26.0,30.27,South,180,0.0,0.0,76,0.00,,,0.00,WUHU21636XXSP,2013-04-17 08:30:00,
2013-04-17 03:35:00,32.8,26.1,30.27,South,180,0.0,0.0,76,0.00,,,0.00,WUHU21636XXSP,2013-04-17 08:35:00,
2013-04-17 03:40:00,33.0,26.3,30.28,South,180,0.0,0.0,76,0.00,,,0.00,WUHU21636XXSP,2013-04-17 08:40:00,
2013-04-17 03:45:00,33.0,26.3,30.27,South,180,0.0,0.0,76,0.00,,,0.00,WUHU21636XXSP,2013-04-17 08:45:00,
2013-04-17 03:50:00,33.0,26.3,30.26,South,180,0.0,0.0,76,0.00,,,0.00,WUHU21636XXSP,2013-04-17 08:50:00,
2013-04-17 03:55:00,33.0,26.3,30.26,South,180,0.0,0.0,76,0.00,,,0.00,WUHU21636XXSP,2013-04-17 08:55:00,
2013-04-17 04:00:00,33.0,26.3,30.27,South,180,0.0,0.0,76,0.00,,,0.00,WUHU21636XXSP,2013-04-17 09:00:00,
2013-04-17 04:05:00,33.0,26.3,30.25,South,180,0.0,0.0,76,0.00,,,0.00,WUHU21636XXSP,2013-04-17 09:05:00,
2013-04-17 04:10:00,33.2,26.5,30.25,South,180,0.0,0.0,76,0.00,,,0.00,WUHU21636XXSP,2013-04-17 09:10:00,
2013-04-17 04:15:00,33.2,26.5,30.25,South,180,0.0,0.0,76,0.00,,,0.00,WUHU21636XXSP,2013-04-17 09:15:00,
2013-04-17 04:20:00,33.2,26.5,30.25,South,180,0.0,0.0,76,0.00,,,0.00,WUHU21636XXSP,2013-04-17 09:20:00,
2013-04-17 04:25:00,33.2,26.2,30.24,South,180,0.0,0.0,75,0.00,,,0.00,WUHU21636XXSP,2013-04-17 09:25:00,
2013-04-17 04:30:00,33.4,26.7,30.23,South,180,0.0,0.0,76,0.00,,,0.00,WUHU21636XXSP,2013-04-17 09:30:00,
2013-04-17 04:35:00,33.4,26.4,30.23,SSE,157,0.0,0.0,75,0.00,,,0.00,WUHU21636XXSP,2013-04-17 09:35:00,
2013-04-17 04:40:00,33.4,26.4,30.23,SSE,157,0.0,0.0,75,0.00,,,0.00,WUHU21636XXSP,2013-04-17 09:40:00,
2013-04-17 04:45:00,33.6,26.6,30.23,SSE,157,0.0,0.0,75,0.00,,,0.00,WUHU21636XXSP,2013-04-17 09:45:00,
2013-04-17 04:50:00,33.6,26.2,30.23,SSE,157,0.0,0.0,74,0.00,,,0.00,WUHU21636XXSP,2013-04-17 09:50:00,
2013-04-17 04:55:00,33.6,26.6,30.23,SSE,157,0.0,0.0,75,0.00,,,0.00,WUHU21636XXSP,2013-04-17 09:55:00,
2013-04-17 05:00:00,33.6,26.2,30.22,SSE,157,0.0,0.0,74,0.00,,,0.00,WUHU21636XXSP,2013-04-17 10:00:00,
2013-04-17 05:05:00,33.6,26.2,30.22,SSE,157,0.0,0.0,74,0.00,,,0.00,WUHU21636XXSP,2013-04-17 10:05:00,
2013-04-17 05:10:00,33.4,26.0,30.22,SSE,157,0.0,0.0,74,0.00,,,0.00,WUHU21636XXSP,2013-04-17 10:10:00,
2013-04-17 05:15:00,33.2,25.8,30.22,ENE,67,0.0,0.0,74,0.00,,,0.00,WUHU21636XXSP,2013-04-17 10:15:00,
2013-04-17 05:20:00,33.0,25.6,30.22,ENE,67,0.0,0.0,74,0.00,,,0.00,WUHU21636XXSP,2013-04-17 10:20:00,
2013-04-17 05:25:00,33.0,25.6,30.23,ENE,67,0.0,0.0,74,0.00,,,0.00,WUHU21636XXSP,2013-04-17 10:25:00,
2013-04-17 05:30:00,33.0,25.6,30.23,ENE,67,0.0,0.0,74,0.00,,,0.00,WUHU21636XXSP,2013-04-17 10:30:00,
2013-04-17 05:35:00,32.8,25.4,30.23,ENE,67,0.0,0.0,74,0.00,,,0.00,WUHU21636XXSP,2013-04-17 10:35:00,
2013-04-17 05:40:00,32.8,25.4,30.23,ENE,67,0.0,0.0,74,0.00,,,0.00,WUHU21636XXSP,2013-04-17 10:40:00,
2013-04-17 05:45:00,32.7,25.6,30.23,ENE,67,0.0,0.0,75,0.00,,,0.00,WUHU21636XXSP,2013-04-17 10:45:00,
2013-04-17 05:50:00,32.7,25.6,30.21,ENE,67,0.0,0.0,75,0.00,,,0.00,WUHU21636XXSP,2013-04-17 10:50:00,
2013-04-17 05:55:00,32.4,25.8,30.21,ENE,67,0.0,0.0,76,0.00,,,0.00,WUHU21636XXSP,2013-04-17 10:55:00,
2013-04-17 06:00:00,32.4,25.8,30.20,ENE,67,0.0,0.0,76,0.00,,,0.00,WUHU21636XXSP,2013-04-17 11:00:00,
2013-04-17 06:05:00,32.4,25.8,30.20,ENE,67,0.0,0.0,76,0.00,,,0.00,WUHU21636XXSP,2013-04-17 11:05:00,
2013-04-17 06:10:00,32.8,26.1,30.19,East,90,0.0,0.0,76,0.00,,,0.00,WUHU21636XXSP,2013-04-17 11:10:00,
2013-04-17 06:15:00,33.0,26.0,30.19,ENE,67,0.0,0.0,75,0.00,,,0.00,WUHU21636XXSP,2013-04-17 11:15:00,
2013-04-17 06:20:00,33.0,26.0,30.20,ENE,67,0.0,0.0,75,0.00,,,0.00,WUHU21636XXSP,2013-04-17 11:20:00,
2013-04-17 06:25:00,33.4,26.0,30.21,ENE,67,0.0,0.0,74,0.00,,,0.00,WUHU21636XXSP,2013-04-17 11:25:00,
2013-04-17 06:30:00,33.6,26.2,30.23,South,180,0.0,0.0,74,0.00,,,0.00,WUHU21636XXSP,2013-04-17 11:30:00,
2013-04-17 06:35:00,33.7,26.0,30.23,ESE,112,0.0,0.0,73,0.00,,,0.00,WUHU21636XXSP,2013-04-17 11:35:00,
2013-04-17 06:40:00,33.7,26.0,30.24,ESE,112,0.0,0.0,73,0.00,,,0.00,WUHU21636XXSP,2013-04-17 11:40:00,
2013-04-17 06:45:00,33.9,26.6,30.24,ESE,112,0.0,0.0,74,0.00,,,0.00,WUHU21636XXSP,2013-04-17 11:45:00,
2013-04-17 06:50:00,33.9,26.6,30.24,ESE,112,0.0,0.0,74,0.00,,,0.00,WUHU21636XXSP,2013-04-17 11:50:00,
2013-04-17 06:55:00,34.1,26.8,30.24,ESE,112,0.0,0.0,74,0.00,,,0.00,WUHU21636XXSP,2013-04-17 11:55:00,
2013-04-17 07:00:00,34.3,27.3,30.24,ESE,112,0.0,0.0,75,0.00,,,0.00,WUHU21636XXSP,2013-04-17 12:00:00,
2013-04-17 07:05:00,34.5,27.2,30.24,East,90,0.0,0.0,74,0.00,,,0.00,WUHU21636XXSP,2013-04-17 12:05:00,
2013-04-17 07:10:00,34.7,26.9,30.25,East,90,0.0,0.0,73,0.00,,,0.00,WUHU21636XXSP,2013-04-17 12:10:00,
2013-04-17 07:15:00,34.9,27.1,30.25,East,90,0.0,0.0,73,0.00,,,0.00,WUHU21636XXSP,2013-04-17 12:15:00,
2013-04-17 07:20:00,35.1,27.3,30.25,East,90,0.0,0.0,73,0.00,,,0.00,WUHU21636XXSP,2013-04-17 12:20:00,
2013-04-17 07:25:00,35.6,27.2,30.25,NE,45,0.0,0.0,71,0.00,,,0.00,WUHU21636XXSP,2013-04-17 12:25:00,
2013-04-17 07:30:00,35.6,27.5,30.26,ESE,112,0.0,0.0,72,0.00,,,0.00,WUHU21636XXSP,2013-04-17 12:30:00,
2013-04-17 07:35:00,35.8,27.4,30.25,ENE,67,0.0,0.0,71,0.00,,,0.00,WUHU21636XXSP,2013-04-17 12:35:00,
2013-04-17 07:40:00,36.4,27.7,30.25,East,90,0.0,0.0,70,0.00,,,0.00,WUHU21636XXSP,2013-04-17 12:40:00,
2013-04-17 07:45:00,36.4,27.7,30.25,NE,45,0.0,0.0,70,0.00,,,0.00,WUHU21636XXSP,2013-04-17 12:45:00,
2013-04-17 07:50:00,36.5,27.8,30.25,East,90,0.0,0.0,70,0.00,,,0.00,WUHU21636XXSP,2013-04-17 12:50:00,
2013-04-17 07:55:00,36.8,28.0,30.26,ESE,112,0.0,0.0,70,0.00,,,0.00,WUHU21636XXSP,2013-04-17 12:55:00,
2013-04-17 08:00:00,37.0,28.2,30.26,SE,135,0.0,0.0,70,0.00,,,0.00,WUHU21636XXSP,2013-04-17 13:00:00,
2013-04-17 08:05:00,37.2,28.4,30.25,SE,135,0.0,0.0,70,0.00,,,0.00,WUHU21636XXSP,2013-04-17 13:05:00,
2013-04-17 08:10:00,37.2,28.4,30.24,NE,45,0.0,0.0,70,0.00,,,0.00,WUHU21636XXSP,2013-04-17 13:10:00,
2013-04-17 08:15:00,37.5,28.7,30.23,North,0,0.0,0.0,70,0.00,,,0.00,WUHU21636XXSP,2013-04-17 13:15:00,
2013-04-17 08:20:00,37.5,28.7,30.23,ENE,67,0.0,0.0,70,0.00,,,0.00,WUHU21636XXSP,2013-04-17 13:20:00,
2013-04-17 08:25:00,37.5,28.7,30.22,ENE,67,0.0,0.0,70,0.00,,,0.00,WUHU21636XXSP,2013-04-17 13:25:00,
2013-04-17 08:30:00,37.7,28.9,30.22,North,0,0.0,0.0,70,0.00,,,0.00,WUHU21636XXSP,2013-04-17 13:30:00,
2013-04-17 08:35:00,37.5,28.7,30.21,NE,45,0.0,0.0,70,0.00,,,0.00,WUHU21636XXSP,2013-04-17 13:35:00,
2013-04-17 08:40:00,37.7,28.9,30.21,NE,45,0.0,0.0,70,0.00,,,0.00,WUHU21636XXSP,2013-04-17 13:40:00,
2013-04-17 08:45:00,37.5,29.0,30.21,ENE,67,0.0,0.0,71,0.00,,,0.00,WUHU21636XXSP,2013-04-17 13:45:00,
2013-04-17 08:50:00,37.5,29.0,30.21,NE,45,0.0,0.0,71,0.00,,,0.00,WUHU21636XXSP,2013-04-17 13:50:00,
2013-04-17 08:55:00,37.5,29.0,30.20,NE,45,0.0,0.0,71,0.00,,,0.00,WUHU21636XXSP,2013-04-17 13:55:00,
2013-04-17 09:00:00,37.5,29.0,30.20,ENE,67,0.0,0.0,71,0.00,,,0.00,WUHU21636XXSP,2013-04-17 14:00:00,
2013-04-17 09:05:00,37.7,29.2,30.19,East,90,0.0,0.0,71,0.00,,,0.00,WUHU21636XXSP,2013-04-17 14:05:00,
2013-04-17 09:10:00,37.7,29.2,30.19,NE,45,0.0,0.0,71,0.00,,,0.00,WUHU21636XXSP,2013-04-17 14:10:00,
2013-04-17 09:15:00,38.1,29.6,30.18,East,90,0.0,0.0,71,0.00,,,0.00,WUHU21636XXSP,2013-04-17 14:15:00,
2013-04-17 09:20:00,38.3,29.8,30.16,ENE,67,0.0,0.0,71,0.00,,,0.00,WUHU21636XXSP,2013-04-17 14:20:00,
2013-04-17 09:25:00,38.1,29.6,30.18,ENE,67,0.0,0.0,71,0.00,,,0.00,WUHU21636XXSP,2013-04-17 14:25:00,
2013-04-17 09:30:00,38.1,29.3,30.19,ENE,67,0.0,0.0,70,0.00,,,0.00,WUHU21636XXSP,2013-04-17 14:30:00,
2013-04-17 09:35:00,38.1,29.6,30.19,ESE,112,0.0,0.0,71,0.00,,,0.00,WUHU21636XXSP,2013-04-17 14:35:00,
2013-04-17 09:40:00,38.1,29.6,30.20,ESE,112,0.0,0.0,71,0.00,,,0.00,WUHU21636XXSP,2013-04-17 14:40:00,
2013-04-17 09:45:00,38.4,29.9,30.20,East,90,0.0,0.0,71,0.00,,,0.00,WUHU21636XXSP,2013-04-17 14:45:00,
2013-04-17 09:50:00,38.4,29.9,30.19,NNW,337,0.0,0.0,71,0.00,,,0.00,WUHU21636XXSP,2013-04-17 14:50:00,
2013-04-17 09:55:00,38.6,29.8,30.19,West,270,0.0,0.0,70,0.00,,,0.00,WUHU21636XXSP,2013-04-17 14:55:00,
2013-04-17 10:00:00,39.1,29.8,30.18,ESE,112,0.0,0.0,69,0.00,,,0.00,WUHU21636XXSP,2013-04-17 15:00:00,
2013-04-17 10:05:00,39.1,29.5,30.18,ENE,67,0.0,0.0,68,0.00,,,0.00,WUHU21636XXSP,2013-04-17 15:05:00,
2013-04-17 10:10:00,39.1,29.5,30.19,ESE,112,0.0,0.0,68,0.00,,,0.00,WUHU21636XXSP,2013-04-17 15:10:00,
2013-04-17 10:15:00,39.4,29.8,30.19,ESE,112,0.0,0.0,68,0.00,,,0.00,WUHU21636XXSP,2013-04-17 15:15:00,
2013-04-17 10:20:00,39.4,29.4,30.19,SE,135,0.0,0.0,67,0.00,,,0.00,WUHU21636XXSP,2013-04-17 15:20:00,
2013-04-17 10:25:00,39.4,29.4,30.19,SE,135,0.0,0.0,67,0.00,,,0.00,WUHU21636XXSP,2013-04-17 15:25:00,
2013-04-17 10:30:00,39.6,29.6,30.19,NE,45,0.0,0.0,67,0.00,,,0.00,WUHU21636XXSP,2013-04-17 15:30:00,
2013-04-17 10:35:00,39.4,29.4,30.20,ENE,67,0.0,0.0,67,0.00,,,0.00,WUHU21636XXSP,2013-04-17 15:35:00,
2013-04-17 10:40:00,39.4,29.4,30.20,NE,45,0.0,0.0,67,0.00,,,0.00,WUHU21636XXSP,2013-04-17 15:40:00,
2013-04-17 10:45:00,39.4,29.4,30.21,NE,45,0.0,0.0,67,0.00,,,0.00,WUHU21636XXSP,2013-04-17 15:45:00,
2013-04-17 10:50:00,39.4,29.4,30.21,ENE,67,0.0,0.0,67,0.00,,,0.00,WUHU21636XXSP,2013-04-17 15:50:00,
2013-04-17 10:55:00,39.4,29.4,30.21,NNE,22,0.0,0.0,67,0.00,,,0.00,WUHU21636XXSP,2013-04-17 15:55:00,
2013-04-17 11:00:00,39.4,29.4,30.21,NNW,337,0.0,0.0,67,0.00,,,0.00,WUHU21636XXSP,2013-04-17 16:00:00,
2013-04-17 11:05:00,39.4,30.1,30.21,East,90,0.0,0.0,69,0.00,,,0.00,WUHU21636XXSP,2013-04-17 16:05:00,
2013-04-17 11:10:00,39.4,30.5,30.21,NE,45,0.0,0.0,70,0.00,,,0.00,WUHU21636XXSP,2013-04-17 16:10:00,
2013-04-17 11:15:00,39.3,30.7,30.21,NNE,22,0.0,0.0,71,0.00,,,0.00,WUHU21636XXSP,2013-04-17 16:15:00,
2013-04-17 11:20:00,39.1,30.9,30.20,East,90,0.0,0.0,72,0.00,,,0.00,WUHU21636XXSP,2013-04-17 16:20:00,
2013-04-17 11:25:00,39.1,31.2,30.20,NNE,22,0.0,0.0,73,0.00,,,0.00,WUHU21636XXSP,2013-04-17 16:25:00,
2013-04-17 11:30:00,38.8,31.7,30.19,NE,45,0.0,0.0,75,0.00,,,0.00,WUHU21636XXSP,2013-04-17 16:30:00,
2013-04-17 11:35:00,38.6,31.5,30.19,ESE,112,0.0,0.0,75,0.00,,,0.00,WUHU21636XXSP,2013-04-17 16:35:00,
2013-04-17 11:40:00,38.6,31.8,30.19,NE,45,0.0,0.0,76,0.02,,,0.01,WUHU21636XXSP,2013-04-17 16:40:00,
2013-04-17 11:45:00,38.6,32.1,30.19,NNW,337,0.0,0.0,77,0.02,,,0.01,WUHU21636XXSP,2013-04-17 16:45:00,
2013-04-17 11:50:00,38.3,31.8,30.19,NNW,337,0.0,0.0,77,0.04,,,0.03,WUHU21636XXSP,2013-04-17 16:50:00,
2013-04-17 11:55:00,37.7,31.2,30.19,NW,315,0.0,0.0,77,0.04,,,0.03,WUHU21636XXSP,2013-04-17 16:55:00,
2013-04-17 12:00:00,37.7,31.2,30.19,NW,315,0.0,0.0,77,0.06,,,0.03,WUHU21636XXSP,2013-04-17 17:00:00,
2013-04-17 12:05:00,37.7,31.5,30.20,NW,315,0.0,0.0,78,0.06,,,0.05,WUHU21636XXSP,2013-04-17 17:05:00,
2013-04-17 12:10:00,37.7,31.5,30.19,NW,315,0.0,0.0,78,0.08,,,0.05,WUHU21636XXSP,2013-04-17 17:10:00,
2013-04-17 12:15:00,37.9,31.7,30.19,South,180,0.0,0.0,78,0.08,,,0.07,WUHU21636XXSP,2013-04-17 17:15:00,
2013-04-17 12:20:00,38.1,31.9,30.19,ESE,112,0.0,0.0,78,0.08,,,0.07,WUHU21636XXSP,2013-04-17 17:20:00,
2013-04-17 12:25:00,38.1,31.9,30.19,East,90,0.0,0.0,78,0.10,,,0.10,WUHU21636XXSP,2013-04-17 17:25:00,
2013-04-17 12:30:00,38.1,32.2,30.19,East,90,0.0,0.0,79,0.10,,,0.10,WUHU21636XXSP,2013-04-17 17:30:00,
2013-04-17 12:35:00,38.1,32.2,30.18,East,90,0.0,0.0,79,0.12,,,0.12,WUHU21636XXSP,2013-04-17 17:35:00,
2013-04-17 12:40:00,38.1,32.2,30.18,East,90,0.0,0.0,79,0.12,,,0.12,WUHU21636XXSP,2013-04-17 17:40:00,
2013-04-17 12:45:00,38.1,32.5,30.18,ESE,112,0.0,0.0,80,0.12,,,0.14,WUHU21636XXSP,2013-04-17 17:45:00,
2013-04-17 12:50:00,37.9,32.3,30.19,East,90,0.0,0.0,80,0.12,,,0.14,WUHU21636XXSP,2013-04-17 17:50:00,
2013-04-17 12:55:00,38.1,32.5,30.19,East,90,0.0,0.0,80,0.12,,,0.16,WUHU21636XXSP,2013-04-17 17:55:00,
2013-04-17 13:00:00,38.1,32.5,30.19,East,90,0.0,0.0,80,0.10,,,0.16,WUHU21636XXSP,2013-04-17 18:00:00,
2013-04-17 13:05:00,38.3,32.7,30.19,ESE,112,0.0,0.0,80,0.10,,,0.16,WUHU21636XXSP,2013-04-17 18:05:00,
2013-04-17 13:10:00,38.4,32.8,30.18,East,90,0.0,0.0,80,0.10,,,0.16,WUHU21636XXSP,2013-04-17 18:10:00,
2013-04-17 13:15:00,38.4,32.8,30.16,ENE,67,0.0,0.0,80,0.10,,,0.16,WUHU21636XXSP,2013-04-17 18:15:00,
2013-04-17 13:20:00,38.4,32.8,30.15,NE,45,0.0,0.0,80,0.10,,,0.18,WUHU21636XXSP,2013-04-17 18:20:00,
2013-04-17 13:25:00,38.4,32.8,30.13,East,90,0.0,0.0,80,0.10,,,0.18,WUHU21636XXSP,2013-04-17 18:25:00,
2013-04-17 13:30:00,38.4,32.8,30.10,NE,45,0.0,0.0,80,0.10,,,0.18,WUHU21636XXSP,2013-04-17 18:30:00,
2013-04-17 13:35:00,38.4,33.1,30.10,ESE,112,0.0,0.0,81,0.10,,,0.18,WUHU21636XXSP,2013-04-17 18:35:00,
2013-04-17 13:40:00,38.1,32.8,30.09,NE,45,0.0,0.0,81,0.10,,,0.18,WUHU21636XXSP,2013-04-17 18:40:00,
2013-04-17 13:45:00,37.9,32.6,30.09,East,90,0.8,0.8,81,0.10,,,0.18,WUHU21636XXSP,2013-04-17 18:45:00,
2013-04-17 13:50:00,37.9,32.9,29.96,East,90,1.2,1.2,82,0.06,,,0.20,WUHU21636XXSP,2013-04-17 18:50:00,
2013-04-17 13:55:00,38.1,32.8,30.01,West,270,0.0,1.2,81,0.06,,,0.20,WUHU21636XXSP,2013-04-17 18:55:00,
2013-04-17 14:00:00,38.3,33.0,30.03,ENE,67,0.0,0.0,81,0.04,,,0.20,WUHU21636XXSP,2013-04-17 19:00:00,
2013-04-17 14:05:00,39.1,34.0,30.05,SSE,157,0.0,0.0,82,0.04,,,0.20,WUHU21636XXSP,2013-04-17 19:05:00,
2013-04-17 14:10:00,39.1,33.4,30.07,West,270,0.0,0.0,80,0.04,,,0.20,WUHU21636XXSP,2013-04-17 19:10:00,
2013-04-17 14:15:00,39.1,33.4,30.08,SE,135,0.0,0.0,80,0.04,,,0.20,WUHU21636XXSP,2013-04-17 19:15:00,
2013-04-17 14:20:00,39.1,33.4,30.06,NE,45,0.0,0.0,80,0.04,,,0.20,WUHU21636XXSP,2013-04-17 19:20:00,
2013-04-17 14:25:00,39.1,33.4,30.05,NE,45,0.0,0.0,80,0.04,,,0.20,WUHU21636XXSP,2013-04-17 19:25:00,
2013-04-17 14:30:00,39.1,33.4,30.04,ENE,67,0.0,0.0,80,0.04,,,0.20,WUHU21636XXSP,2013-04-17 19:30:00,
2013-04-17 14:35:00,39.4,33.7,30.03,NNE,22,0.0,0.0,80,0.04,,,0.20,WUHU21636XXSP,2013-04-17 19:35:00,
2013-04-17 14:40:00,39.4,33.7,30.02,ENE,67,0.0,0.0,80,0.04,,,0.20,WUHU21636XXSP,2013-04-17 19:40:00,
2013-04-17 14:45:00,39.6,33.9,30.02,ENE,67,0.0,0.0,80,0.04,,,0.20,WUHU21636XXSP,2013-04-17 19:45:00,
2013-04-17 14:50:00,39.4,33.4,30.02,NE,45,0.0,0.0,79,0.04,,,0.20,WUHU21636XXSP,2013-04-17 19:50:00,
2013-04-17 14:55:00,39.6,33.6,30.02,NE,45,0.0,0.0,79,0.04,,,0.20,WUHU21636XXSP,2013-04-17 19:55:00,
2013-04-17 15:00:00,39.6,33.6,30.02,NNE,22,0.0,0.0,79,0.00,,,0.20,WUHU21636XXSP,2013-04-17 20:00:00,
2013-04-17 15:05:00,39.6,33.6,30.02,NE,45,0.0,0.0,79,0.00,,,0.20,WUHU21636XXSP,2013-04-17 20:05:00,
2013-04-17 15:10:00,39.8,33.8,30.03,ESE,112,0.0,0.0,79,0.00,,,0.20,WUHU21636XXSP,2013-04-17 20:10:00,
2013-04-17 15:15:00,40.0,34.0,30.02,NNE,22,0.0,0.0,79,0.00,,,0.20,WUHU21636XXSP,2013-04-17 20:15:00,
2013-04-17 15:20:00,40.0,34.0,30.02,ESE,112,0.0,0.0,79,0.00,,,0.20,WUHU21636XXSP,2013-04-17 20:20:00,
2013-04-17 15:25:00,40.0,34.0,30.01,SE,135,0.0,0.0,79,0.00,,,0.20,WUHU21636XXSP,2013-04-17 20:25:00,
2013-04-17 15:30:00,40.0,33.7,30.02,ENE,67,0.0,0.0,78,0.00,,,0.20,WUHU21636XXSP,2013-04-17 20:30:00,
2013-04-17 15:35:00,40.0,33.7,30.02,North,0,0.0,0.0,78,0.00,,,0.20,WUHU21636XXSP,2013-04-17 20:35:00,
2013-04-17 15:40:00,40.0,33.7,30.02,East,90,0.8,0.8,78,0.00,,,0.20,WUHU21636XXSP,2013-04-17 20:40:00,
2013-04-17 15:45:00,40.0,33.4,30.02,NNE,22,0.0,0.8,77,0.00,,,0.20,WUHU21636XXSP,2013-04-17 20:45:00,
2013-04-17 15:50:00,40.0,33.7,30.02,East,90,0.0,0.0,78,0.00,,,0.20,WUHU21636XXSP,2013-04-17 20:50:00,
2013-04-17 15:55:00,40.2,33.9,30.01,ENE,67,0.0,0.0,78,0.00,,,0.20,WUHU21636XXSP,2013-04-17 20:55:00,
2013-04-17 16:00:00,40.2,33.9,30.01,NE,45,0.0,0.0,78,0.00,,,0.20,WUHU21636XXSP,2013-04-17 21:00:00,
2013-04-17 16:05:00,40.0,33.4,30.01,SE,135,0.0,0.0,77,0.00,,,0.20,WUHU21636XXSP,2013-04-17 21:05:00,
2013-04-17 16:10:00,40.0,33.4,30.02,NE,45,0.0,0.0,77,0.00,,,0.20,WUHU21636XXSP,2013-04-17 21:10:00,
2013-04-17 16:15:00,40.2,33.6,30.02,East,90,0.0,0.0,77,0.00,,,0.20,WUHU21636XXSP,2013-04-17 21:15:00,
2013-04-17 16:20:00,40.2,33.6,30.02,East,90,0.0,0.0,77,0.00,,,0.20,WUHU21636XXSP,2013-04-17 21:20:00,
2013-04-17 16:25:00,40.0,33.7,30.01,NE,45,3.4,3.4,78,0.00,,,0.20,WUHU21636XXSP,2013-04-17 21:25:00,
2013-04-17 16:30:00,40.0,33.4,30.01,SE,135,0.0,3.4,77,0.00,,,0.20,WUHU21636XXSP,2013-04-17 21:30:00,
2013-04-17 16:35:00,40.0,33.7,30.02,East,90,0.0,3.4,78,0.00,,,0.20,WUHU21636XXSP,2013-04-17 21:35:00,
2013-04-17 16:40:00,39.6,33.0,30.01,ENE,67,1.2,1.2,77,0.00,,,0.20,WUHU21636XXSP,2013-04-17 21:40:00,
2013-04-17 16:45:00,39.6,33.3,30.01,North,0,0.0,1.2,78,0.00,,,0.20,WUHU21636XXSP,2013-04-17 21:45:00,
2013-04-17 16:50:00,39.6,33.3,30.00,NE,45,0.0,1.2,78,0.00,,,0.20,WUHU21636XXSP,2013-04-17 21:50:00,
2013-04-17 16:55:00,39.6,33.3,30.00,NNE,22,0.0,0.0,78,0.00,,,0.20,WUHU21636XXSP,2013-04-17 21:55:00,
2013-04-17 17:00:00,39.6,33.3,29.99,NE,45,0.0,0.0,78,0.00,,,0.20,WUHU21636XXSP,2013-04-17 22:00:00,
2013-04-17 17:05:00,39.4,33.1,29.99,ESE,112,0.0,0.0,78,0.00,,,0.20,WUHU21636XXSP,2013-04-17 22:05:00,
2013-04-17 17:10:00,39.4,33.4,29.99,NE,45,0.0,0.0,79,0.00,,,0.20,WUHU21636XXSP,2013-04-17 22:10:00,
2013-04-17 17:15:00,39.4,33.4,29.98,NE,45,0.0,0.0,79,0.00,,,0.20,WUHU21636XXSP,2013-04-17 22:15:00,
2013-04-17 17:20:00,39.4,33.4,29.96,ENE,67,0.0,0.0,79,0.00,,,0.20,WUHU21636XXSP,2013-04-17 22:20:00,
2013-04-17 17:25:00,39.4,33.4,29.97,ENE,67,0.0,0.0,79,0.00,,,0.20,WUHU21636XXSP,2013-04-17 22:25:00,
2013-04-17 17:30:00,39.4,33.4,29.98,SE,135,0.0,0.0,79,0.00,,,0.20,WUHU21636XXSP,2013-04-17 22:30:00,
2013-04-17 17:35:00,39.4,33.4,29.98,NNW,337,0.0,1.2,79,0.00,,,0.20,WUHU21636XXSP,2013-04-17 22:35:00,
2013-04-17 17:40:00,39.4,33.4,29.98,NE,45,0.0,1.2,79,0.00,,,0.20,WUHU21636XXSP,2013-04-17 22:40:00,
2013-04-17 17:45:00,39.4,33.4,29.97,NNE,22,0.0,0.0,79,0.00,,,0.20,WUHU21636XXSP,2013-04-17 22:45:00,
2013-04-17 17:50:00,39.4,33.4,29.97,ESE,112,0.0,0.0,79,0.00,,,0.20,WUHU21636XXSP,2013-04-17 22:50:00,
2013-04-17 17:55:00,39.6,33.9,29.95,East,90,0.0,0.0,80,0.00,,,0.20,WUHU21636XXSP,2013-04-17 22:55:00,
2013-04-17 18:00:00,39.4,33.7,29.94,ENE,67,0.0,0.0,80,0.00,,,0.20,WUHU21636XXSP,2013-04-17 23:00:00,
2013-04-17 18:05:00,39.4,33.7,29.94,ENE,67,0.0,0.0,80,0.00,,,0.20,WUHU21636XXSP,2013-04-17 23:05:00,
2013-04-17 18:10:00,39.4,33.7,29.92,East,90,0.0,0.0,80,0.00,,,0.20,WUHU21636XXSP,2013-04-17 23:10:00,
2013-04-17 18:15:00,39.4,33.7,29.92,ENE,67,0.0,0.0,80,0.00,,,0.20,WUHU21636XXSP,2013-04-17 23:15:00,
2013-04-17 18:20:00,39.4,33.7,29.91,ESE,112,0.0,0.0,80,0.00,,,0.20,WUHU21636XXSP,2013-04-17 23:20:00,
2013-04-17 18:25:00,39.4,33.7,29.90,SE,135,0.0,0.0,80,0.00,,,0.20,WUHU21636XXSP,2013-04-17 23:25:00,
2013-04-17 18:30:00,39.4,33.7,29.90,East,90,0.0,0.0,80,0.00,,,0.20,WUHU21636XXSP,2013-04-17 23:30:00,
2013-04-17 18:35:00,39.4,33.7,29.90,East,90,0.0,0.0,80,0.00,,,0.20,WUHU21636XXSP,2013-04-17 23:35:00,
2013-04-17 18:40:00,39.4,33.7,29.88,ESE,112,0.0,0.0,80,0.00,,,0.20,WUHU21636XXSP,2013-04-17 23:40:00,
2013-04-17 18:45:00,39.4,33.7,29.87,East,90,0.0,0.0,80,0.00,,,0.20,WUHU21636XXSP,2013-04-17 23:45:00,
2013-04-17 18:50:00,39.4,33.7,29.89,NE,45,0.0,0.0,80,0.00,,,0.20,WUHU21636XXSP,2013-04-17 23:50:00,
2013-04-17 18:55:00,39.4,33.7,29.90,ESE,112,0.0,0.0,80,0.00,,,0.20,WUHU21636XXSP,2013-04-17 23:55:00,
2013-04-17 19:00:00,39.4,33.7,29.90,SE,135,0.0,0.0,80,0.00,,,0.20,WUHU21636XXSP,2013-04-18 00:00:00,
2013-04-17 19:05:00,39.4,33.7,29.89,East,90,0.0,0.0,80,0.00,,,0.20,WUHU21636XXSP,2013-04-18 00:05:00,
2013-04-17 19:10:00,39.4,33.7,29.89,NE,45,0.0,0.0,80,0.00,,,0.20,WUHU21636XXSP,2013-04-18 00:10:00,
2013-04-17 19:15:00,39.6,33.9,29.90,South,180,0.0,0.0,80,0.00,,,0.20,WUHU21636XXSP,2013-04-18 00:15:00,
2013-04-17 19:20:00,39.6,33.9,29.90,ESE,112,0.0,0.0,80,0.00,,,0.20,WUHU21636XXSP,2013-04-18 00:20:00,
2013-04-17 19:25:00,39.6,33.9,29.90,ESE,112,0.0,0.0,80,0.00,,,0.20,WUHU21636XXSP,2013-04-18 00:25:00,
2013-04-17 19:30:00,39.6,33.9,29.87,ESE,112,0.0,0.0,80,0.00,,,0.20,WUHU21636XXSP,2013-04-18 00:30:00,
2013-04-17 19:35:00,39.6,33.9,29.85,WSW,247,0.0,0.0,80,0.00,,,0.20,WUHU21636XXSP,2013-04-18 00:35:00,
2013-04-17 19:40:00,39.4,33.7,29.82,NNE,22,0.0,0.0,80,0.00,,,0.20,WUHU21636XXSP,2013-04-18 00:40:00,
2013-04-17 19:45:00,39.4,33.7,29.84,ESE,112,0.0,0.0,80,0.00,,,0.20,WUHU21636XXSP,2013-04-18 00:45:00,
2013-04-17 19:50:00,39.4,33.7,29.84,WNW,292,0.0,0.0,80,0.00,,,0.20,WUHU21636XXSP,2013-04-18 00:50:00,
2013-04-17 19:55:00,39.4,33.7,29.90,WSW,247,0.0,0.0,80,0.00,,,0.20,WUHU21636XXSP,2013-04-18 00:55:00,
2013-04-17 20:00:00,39.4,33.7,29.92,ESE,112,0.0,0.0,80,0.00,,,0.20,WUHU21636XXSP,2013-04-18 01:00:00,
2013-04-17 20:05:00,39.6,33.9,29.93,SE,135,0.0,0.0,80,0.00,,,0.20,WUHU21636XXSP,2013-04-18 01:05:00,
2013-04-17 20:10:00,39.6,33.9,29.93,ESE,112,0.0,0.0,80,0.00,,,0.20,WUHU21636XXSP,2013-04-18 01:10:00,
2013-04-17 20:15:00,39.6,33.9,29.94,ENE,67,0.0,0.0,80,0.00,,,0.20,WUHU21636XXSP,2013-04-18 01:15:00,
2013-04-17 20:20:00,39.6,33.9,29.94,NW,315,0.0,0.0,80,0.00,,,0.20,WUHU21636XXSP,2013-04-18 01:20:00,
2013-04-17 20:25:00,39.6,34.2,29.94,NNE,22,0.0,0.0,81,0.00,,,0.20,WUHU21636XXSP,2013-04-18 01:25:00,
2013-04-17 20:30:00,39.6,34.2,29.94,SE,135,0.0,0.0,81,0.00,,,0.20,WUHU21636XXSP,2013-04-18 01:30:00,
2013-04-17 20:35:00,39.6,34.2,29.94,East,90,0.0,0.0,81,0.00,,,0.20,WUHU21636XXSP,2013-04-18 01:35:00,
2013-04-17 20:41:00,39.6,34.2,29.93,ESE,112,0.0,0.0,81,0.00,,,0.20,WUHU21636XXSP,2013-04-18 01:41:00,
2013-04-17 20:46:00,39.4,34.0,29.94,West,270,0.0,0.0,81,0.00,,,0.20,WUHU21636XXSP,2013-04-18 01:46:00,
2013-04-17 20:51:00,39.4,34.0,29.94,NNE,22,0.0,0.0,81,0.00,,,0.20,WUHU21636XXSP,2013-04-18 01:51:00,
2013-04-17 20:56:00,39.4,34.3,29.92,NE,45,0.0,0.0,82,0.00,,,0.20,WUHU21636XXSP,2013-04-18 01:56:00,
2013-04-17 21:01:00,39.4,34.3,29.92,ENE,67,0.0,0.0,82,0.00,,,0.20,WUHU21636XXSP,2013-04-18 02:01:00,
2013-04-17 21:06:00,39.4,34.3,29.92,ENE,67,0.0,0.0,82,0.00,,,0.20,WUHU21636XXSP,2013-04-18 02:06:00,
2013-04-17 21:11:00,39.4,34.3,29.91,NE,45,0.0,0.0,82,0.02,,,0.22,WUHU21636XXSP,2013-04-18 02:11:00,
2013-04-17 21:16:00,39.1,34.0,29.91,NNW,337,0.0,0.0,82,0.02,,,0.22,WUHU21636XXSP,2013-04-18 02:16:00,
2013-04-17 21:21:00,39.1,34.0,29.91,NNE,22,0.0,0.0,82,0.02,,,0.22,WUHU21636XXSP,2013-04-18 02:21:00,
2013-04-17 21:26:00,39.1,34.0,29.91,NE,45,0.0,0.0,82,0.02,,,0.22,WUHU21636XXSP,2013-04-18 02:26:00,
2013-04-17 21:31:00,38.8,33.8,29.91,East,90,0.0,0.0,82,0.06,,,0.24,WUHU21636XXSP,2013-04-18 02:31:00,
2013-04-17 21:36:00,38.6,33.6,29.92,NNE,22,0.0,0.0,82,0.06,,,0.26,WUHU21636XXSP,2013-04-18 02:36:00,
2013-04-17 21:41:00,38.6,33.9,29.91,NNE,22,0.0,0.0,83,0.06,,,0.26,WUHU21636XXSP,2013-04-18 02:41:00,
2013-04-17 21:46:00,38.6,33.9,29.91,NE,45,0.0,0.0,83,0.08,,,0.28,WUHU21636XXSP,2013-04-18 02:46:00,
2013-04-17 21:51:00,38.6,33.9,29.90,NE,45,0.0,0.0,83,0.08,,,0.28,WUHU21636XXSP,2013-04-18 02:51:00,
2013-04-17 21:56:00,38.6,33.9,29.90,NE,45,0.0,0.0,83,0.10,,,0.30,WUHU21636XXSP,2013-04-18 02:56:00,
2013-04-17 22:01:00,38.4,33.7,29.90,NE,45,0.0,0.0,83,0.12,,,0.32,WUHU21636XXSP,2013-04-18 03:01:00,
2013-04-17 22:06:00,38.4,33.7,29.90,East,90,0.0,0.0,83,0.14,,,0.34,WUHU21636XXSP,2013-04-18 03:06:00,
2013-04-17 22:11:00,38.4,33.7,29.89,East,90,0.0,0.0,83,0.14,,,0.34,WUHU21636XXSP,2013-04-18 03:11:00,
2013-04-17 22:16:00,38.4,33.7,29.89,East,90,0.0,0.0,83,0.14,,,0.36,WUHU21636XXSP,2013-04-18 03:16:00,
2013-04-17 22:21:00,38.4,33.7,29.89,WSW,247,0.0,0.0,83,0.14,,,0.36,WUHU21636XXSP,2013-04-18 03:21:00,
2013-04-17 22:26:00,38.4,33.7,29.89,ESE,112,0.0,0.0,83,0.16,,,0.38,WUHU21636XXSP,2013-04-18 03:26:00,
2013-04-17 22:31:00,38.4,33.7,29.89,NNW,337,0.0,0.0,83,0.16,,,0.38,WUHU21636XXSP,2013-04-18 03:31:00,
2013-04-17 22:36:00,38.4,33.7,29.87,NNW,337,0.0,0.0,83,0.14,,,0.40,WUHU21636XXSP,2013-04-18 03:36:00,
2013-04-17 22:41:00,38.4,33.7,29.87,ENE,67,0.0,0.0,83,0.14,,,0.40,WUHU21636XXSP,2013-04-18 03:41:00,
2013-04-17 22:46:00,38.4,33.7,29.88,NE,45,0.0,0.0,83,0.14,,,0.40,WUHU21636XXSP,2013-04-18 03:46:00,
2013-04-17 22:51:00,38.3,33.6,29.89,NE,45,0.0,0.0,83,0.14,,,0.42,WUHU21636XXSP,2013-04-18 03:51:00,
2013-04-17 22:56:00,38.3,33.6,29.88,NNE,22,0.0,0.0,83,0.14,,,0.42,WUHU21636XXSP,2013-04-18 03:56:00,
2013-04-17 23:01:00,38.3,33.6,29.88,NNE,22,0.0,0.0,83,0.08,,,0.42,WUHU21636XXSP,2013-04-18 04:01:00,
2013-04-17 23:02:00,38.1,33.4,29.88,West,270,0.0,0.0,83,0.08,,,0.42,WUHU21636XXSP,2013-04-18 04:02:00,
2013-04-17 23:07:00,38.1,33.4,29.88,WNW,292,0.0,0.0,83,0.08,,,0.42,WUHU21636XXSP,2013-04-18 04:07:00,
2013-04-17 23:12:00,38.1,33.4,29.88,WNW,292,0.0,0.0,83,0.10,,,0.44,WUHU21636XXSP,2013-04-18 04:12:00,
2013-04-17 23:17:00,38.1,33.4,29.85,NNW,337,0.0,0.0,83,0.10,,,0.44,WUHU21636XXSP,2013-04-18 04:17:00,
2013-04-17 23:22:00,38.1,33.4,29.84,ENE,67,0.0,0.0,83,0.10,,,0.44,WUHU21636XXSP,2013-04-18 04:22:00,
2013-04-17 23:27:00,37.9,33.2,29.84,ENE,67,0.0,0.0,83,0.10,,,0.44,WUHU21636XXSP,2013-04-18 04:27:00,
2013-04-17 23:32:00,37.7,33.0,29.83,East,90,0.0,0.0,83,0.10,,,0.44,WUHU21636XXSP,2013-04-18 04:32:00,
2013-04-17 23:37:00,37.5,32.8,29.82,ENE,67,0.0,0.0,83,0.10,,,0.44,WUHU21636XXSP,2013-04-18 04:37:00,
2013-04-17 23:42:00,37.5,32.8,29.81,ENE,67,0.0,0.0,83,0.10,,,0.44,WUHU21636XXSP,2013-04-18 04:42:00,
2013-04-17 23:47:00,37.2,32.5,29.80,ENE,67,0.0,0.0,83,0.10,,,0.44,WUHU21636XXSP,2013-04-18 04:47:00,
2013-04-17 23:52:00,37.2,32.5,29.79,ESE,112,0.0,0.0,83,0.10,,,0.44,WUHU21636XXSP,2013-04-18 04:52:00,
2013-04-17 23:57:00,37.0,32.3,29.76,NNE,22,0.0,0.0,83,0.10,,,0.44,WUHU21636XXSP,2013-04-18 04:57:00,